Elwood, IN

4:08 PM EST on November 27, 2014 (GMT -0500)
Rydman and Fox, Inc. | Change Station
CLOSE
Current Station
Personal Weather Station
Location: Anderson, IN
Elevation: 875 ft
Nearby Weather Stations

Elev 875 ft 40.19 °N, 85.75 °W | Updated 0 second ago

Mostly Cloudy
Mostly Cloudy
27.7 °F
Feels Like 18 °F
N
11.0
Wind Variable Wind from WNW
Gusts 15.0 mph

Today
High -- | Low -- °F
--% Chance of Precip.
Yesterday
High -- | Low -- °F
Precip. -- in
7:42 AM 5:19 PM
Waxing Crescent, 33% visible
Pressure 30.32 in
Visibility 9.0 miles
Clouds Mostly Cloudy 2000 ft
Overcast 3300 ft
Windchill 18 °F
Dew Point 24 °F
Humidity 84%
Rainfall 0.00 in
Snow Depth Not available.
UV 0 out of 12
Pollen .10 out of 12
Air Quality Not available.
Flu Activity Not available.
METAR KOKK 272055Z AUTO 30018KT 9SM BKN020 OVC033 M02/M06 A3032 RMK AO1 52014

More Conditions Fewer Conditions

Pressure 30.32 in
Visibility 9.0 miles
Clouds Mostly Cloudy 2000 ft
Overcast 3300 ft
Windchill 18 °F
Dew Point 24 °F
Humidity 84%
Rainfall 0.00 in
Snow Depth Not available.
UV 0 out of 12
Pollen .10 out of 12
Air Quality Not available.
Flu Activity Not available.
METAR KOKK 272055Z AUTO 30018KT 9SM BKN020 OVC033 M02/M06 A3032 RMK AO1 52014

More Conditions Fewer Conditions

10-Day Weather Forecast

Almanac

Astronomy

Nov. 27, 2014 Rise Set
Actual Time
Civil Twilight
Nautical Twilight
Astronomical Twilight
Moon
Length of Visible Light
Length of Day
Tomorrow will be .
, % of the Moon is Illuminated

Today's Extremes

State Highs State Lows

Community

WunderPhotos

Upload Photos

1,774,104 photos uploaded!

WunderBlogs® & News

Nearby

Air Quality

  Air Quality AQ Index Pollutant
Not available.

Snow Depth

Station Depth Elevation

Earthquake Activity

City Distance Mag. Time & Date
Minimum magnitude displayed is 2.5.

Coastal Water Temperatures

Place Temperature

Nearby Weather Stations